Time;durP1;ratioP1;P1;durP2;ratioP2;P2;SDS_P1;SDS_P2;PMS_P1;PMS_P2;Temp;Humidity;BMP_temperature;BMP_pressure;BME280_temperature;BME280_humidity;BME280_pressure;Samples;Min_cycle;Max_cycle;Signal;HPM_P1;HPM_P2
2023/03/17 00:00:13;;;;;;;2.03;1.30;;;;;;;;;;5008245;28;20201;-70
2023/03/17 00:02:41;;;;;;;1.57;1.20;;;;;;;;;;5023892;28;20266;-69
2023/03/17 00:05:16;;;;;;;1.57;1.40;;;;;;;;;;5025971;28;20204;-69
2023/03/17 00:07:44;;;;;;;1.30;1.23;;;;;;;;;;5025918;28;20223;-69
2023/03/17 00:10:14;;;;;;;1.20;1.13;;;;;;;;;;5021592;28;20212;-69
2023/03/17 00:12:41;;;;;;;1.33;1.23;;;;;;;;;;5026858;28;20204;-70
2023/03/17 00:15:09;;;;;;;1.50;1.40;;;;;;;;;;5025880;28;20213;-69
2023/03/17 00:17:37;;;;;;;1.37;1.27;;;;;;;;;;5026974;28;20208;-71
2023/03/17 00:20:04;;;;;;;3.97;1.67;;;;;;;;;;5024612;28;20204;-69
2023/03/17 00:22:33;;;;;;;1.50;1.40;;;;;;;;;;5024777;28;20215;-70
2023/03/17 00:25:00;;;;;;;1.50;1.40;;;;;;;;;;5024408;28;20204;-70
2023/03/17 00:27:28;;;;;;;2.40;1.70;;;;;;;;;;5022575;28;20328;-70
2023/03/17 00:29:55;;;;;;;3.30;1.63;;;;;;;;;;5022996;28;20212;-70
2023/03/17 00:32:22;;;;;;;2.10;1.63;;;;;;;;;;5019229;28;20212;-70
2023/03/17 00:34:50;;;;;;;2.10;1.47;;;;;;;;;;5025716;28;20196;-70
2023/03/17 00:37:17;;;;;;;1.70;1.60;;;;;;;;;;5025114;28;20227;-69
2023/03/17 00:39:45;;;;;;;2.17;1.70;;;;;;;;;;5023686;28;20211;-71
2023/03/17 00:42:13;;;;;;;1.60;1.50;;;;;;;;;;5028238;28;20207;-70
2023/03/17 00:44:40;;;;;;;1.67;1.30;;;;;;;;;;5025948;28;20203;-70
2023/03/17 00:47:07;;;;;;;1.93;1.40;;;;;;;;;;5022336;28;20278;-70
2023/03/17 00:49:34;;;;;;;1.60;1.50;;;;;;;;;;5028797;28;20208;-71
2023/03/17 00:52:01;;;;;;;1.77;1.50;;;;;;;;;;5019605;28;20297;-70
2023/03/17 00:54:28;;;;;;;1.73;1.63;;;;;;;;;;5028593;28;20200;-70
2023/03/17 00:56:57;;;;;;;1.63;1.33;;;;;;;;;;5022811;28;20211;-70
2023/03/17 00:59:26;;;;;;;1.50;1.40;;;;;;;;;;5024409;28;20212;-70
2023/03/17 01:01:54;;;;;;;1.50;1.40;;;;;;;;;;5024438;28;20231;-69
2023/03/17 01:04:21;;;;;;;1.80;1.50;;;;;;;;;;5026307;28;20216;-70
2023/03/17 01:06:49;;;;;;;1.40;1.30;;;;;;;;;;5022817;28;20228;-71
2023/03/17 01:09:17;;;;;;;1.47;1.37;;;;;;;;;;5024512;28;20204;-69
2023/03/17 01:11:44;;;;;;;1.47;1.33;;;;;;;;;;5023152;28;20201;-70
2023/03/17 01:14:14;;;;;;;1.40;1.30;;;;;;;;;;5025465;28;20201;-70
2023/03/17 01:16:41;;;;;;;1.40;1.30;;;;;;;;;;5021124;28;20210;-71
2023/03/17 01:19:09;;;;;;;1.43;1.33;;;;;;;;;;5021781;28;20200;-70
2023/03/17 01:21:36;;;;;;;1.60;1.37;;;;;;;;;;5025291;28;20323;-70
2023/03/17 01:24:04;;;;;;;1.30;1.20;;;;;;;;;;5020251;28;20200;-70
2023/03/17 01:26:31;;;;;;;1.53;1.43;;;;;;;;;;5025174;28;20204;-69
2023/03/17 01:28:58;;;;;;;1.40;1.30;;;;;;;;;;5023728;28;20220;-70
2023/03/17 01:31:27;;;;;;;1.37;1.27;;;;;;;;;;5022381;28;20289;-70
2023/03/17 01:33:54;;;;;;;1.50;1.40;;;;;;;;;;5024168;28;20228;-70
2023/03/17 01:36:21;;;;;;;1.73;1.30;;;;;;;;;;5023463;28;20200;-70
2023/03/17 01:38:49;;;;;;;1.73;1.30;;;;;;;;;;5021881;28;20204;-70
2023/03/17 01:41:17;;;;;;;1.37;1.27;;;;;;;;;;5023258;28;20200;-70
2023/03/17 01:43:44;;;;;;;1.83;1.40;;;;;;;;;;5015068;28;20213;-70
2023/03/17 01:46:23;;;;;;;1.50;1.40;;;;;;;;;;5025920;28;20267;-70
2023/03/17 01:48:56;;;;;;;1.73;1.50;;;;;;;;;;5024311;28;20224;-70
2023/03/17 01:51:26;;;;;;;2.40;1.60;;;;;;;;;;5024672;28;20208;-70
2023/03/17 01:53:54;;;;;;;1.60;1.50;;;;;;;;;;5018825;28;20204;-70
2023/03/17 01:56:22;;;;;;;2.07;1.30;;;;;;;;;;5024920;28;20205;-70
2023/03/17 01:58:50;;;;;;;1.40;1.30;;;;;;;;;;5022865;28;20208;-69
2023/03/17 02:01:20;;;;;;;1.63;1.30;;;;;;;;;;5022511;28;20231;-63
2023/03/17 02:03:49;;;;;;;1.37;1.27;;;;;;;;;;5025036;28;20215;-63
2023/03/17 02:06:18;;;;;;;1.37;1.20;;;;;;;;;;5023586;28;20207;-63
2023/03/17 02:08:45;;;;;;;2.00;1.20;;;;;;;;;;5026417;28;20223;-63
2023/03/17 02:11:12;;;;;;;2.30;1.50;;;;;;;;;;5019106;28;20208;-62
2023/03/17 02:13:40;;;;;;;1.40;1.30;;;;;;;;;;5025330;28;20215;-62
2023/03/17 02:16:08;;;;;;;1.47;1.10;;;;;;;;;;5025813;28;20433;-63
2023/03/17 02:18:35;;;;;;;1.37;1.27;;;;;;;;;;5024179;28;20201;-63
2023/03/17 02:21:20;;;;;;;1.30;1.17;;;;;;;;;;5026180;28;20197;-63
2023/03/17 02:23:49;;;;;;;1.73;1.50;;;;;;;;;;5021024;28;20204;-63
2023/03/17 02:26:17;;;;;;;1.43;1.33;;;;;;;;;;5025709;28;20219;-63
2023/03/17 02:28:44;;;;;;;1.50;1.40;;;;;;;;;;5022737;28;20232;-63
2023/03/17 02:31:12;;;;;;;1.70;1.60;;;;;;;;;;5023080;28;20200;-62
2023/03/17 02:33:39;;;;;;;1.43;1.30;;;;;;;;;;5017879;28;20287;-63
2023/03/17 02:36:06;;;;;;;1.57;1.40;;;;;;;;;;5021459;28;20209;-63
2023/03/17 02:38:34;;;;;;;1.37;1.27;;;;;;;;;;5022158;28;20227;-63
2023/03/17 02:41:03;;;;;;;1.17;1.10;;;;;;;;;;5024803;28;20204;-63
2023/03/17 02:43:30;;;;;;;1.40;1.30;;;;;;;;;;5021275;28;20200;-63
2023/03/17 02:45:57;;;;;;;1.60;1.40;;;;;;;;;;5028206;28;20211;-69
2023/03/17 02:48:25;;;;;;;1.20;1.10;;;;;;;;;;5022505;28;20217;-71
2023/03/17 02:50:52;;;;;;;1.40;1.30;;;;;;;;;;5017449;28;20298;-70
2023/03/17 02:53:19;;;;;;;1.60;1.50;;;;;;;;;;5015742;28;20201;-71
2023/03/17 02:55:46;;;;;;;2.10;1.70;;;;;;;;;;5022507;28;20201;-71
2023/03/17 02:58:15;;;;;;;3.90;2.13;;;;;;;;;;5021392;28;20204;-71
2023/03/17 03:00:42;;;;;;;3.87;2.80;;;;;;;;;;5022945;28;20208;-71
2023/03/17 03:03:09;;;;;;;7.80;3.10;;;;;;;;;;5019953;28;20208;-70
2023/03/17 03:05:36;;;;;;;5.80;3.10;;;;;;;;;;5025656;28;20211;-70
2023/03/17 03:08:06;;;;;;;8.63;3.80;;;;;;;;;;5024373;28;20217;-71
2023/03/17 03:10:33;;;;;;;6.60;3.23;;;;;;;;;;5021987;28;20208;-71
2023/03/17 03:13:01;;;;;;;5.60;3.07;;;;;;;;;;5023102;28;20212;-71
2023/03/17 03:15:30;;;;;;;6.33;3.60;;;;;;;;;;5019446;28;20235;-70
2023/03/17 03:17:57;;;;;;;5.03;3.17;;;;;;;;;;5022885;28;20201;-71
2023/03/17 03:20:24;;;;;;;5.60;3.30;;;;;;;;;;5017732;28;20226;-70
2023/03/17 03:22:51;;;;;;;5.63;3.10;;;;;;;;;;5026912;28;20200;-70
2023/03/17 03:25:18;;;;;;;6.97;3.40;;;;;;;;;;5022925;28;20211;-71
2023/03/17 03:27:46;;;;;;;3.60;2.70;;;;;;;;;;5027053;28;20207;-72
2023/03/17 03:30:13;;;;;;;2.87;2.27;;;;;;;;;;5022702;28;20203;-71
2023/03/17 03:32:41;;;;;;;3.03;2.10;;;;;;;;;;5028198;28;20218;-71
2023/03/17 03:35:09;;;;;;;2.60;1.90;;;;;;;;;;5022485;28;20216;-71
2023/03/17 03:37:36;;;;;;;1.80;1.70;;;;;;;;;;5024007;28;20205;-71
2023/03/17 03:40:03;;;;;;;1.83;1.60;;;;;;;;;;5025175;28;20205;-71
2023/03/17 03:42:30;;;;;;;1.83;1.63;;;;;;;;;;5023627;28;20215;-72
2023/03/17 03:44:58;;;;;;;2.80;1.53;;;;;;;;;;5026123;28;20211;-72
2023/03/17 03:47:25;;;;;;;2.27;1.87;;;;;;;;;;5023534;28;20204;-72
2023/03/17 03:49:53;;;;;;;1.70;1.60;;;;;;;;;;5024311;28;20262;-72
2023/03/17 03:52:20;;;;;;;2.47;1.70;;;;;;;;;;5026035;28;20208;-72
2023/03/17 03:54:47;;;;;;;1.60;1.50;;;;;;;;;;5029582;28;20258;-72
2023/03/17 03:57:15;;;;;;;1.70;1.40;;;;;;;;;;5025742;28;20200;-71
2023/03/17 03:59:42;;;;;;;1.70;1.50;;;;;;;;;;5027457;28;20203;-71
2023/03/17 04:02:09;;;;;;;2.27;1.50;;;;;;;;;;5024416;28;20216;-71
2023/03/17 04:04:36;;;;;;;1.60;1.40;;;;;;;;;;5026486;28;20205;-72
2023/03/17 04:07:05;;;;;;;1.93;1.50;;;;;;;;;;5025614;28;20213;-71
2023/03/17 04:09:32;;;;;;;1.43;1.33;;;;;;;;;;5026430;28;20315;-71
2023/03/17 04:11:59;;;;;;;2.20;1.47;;;;;;;;;;5023448;28;20204;-71
2023/03/17 04:14:27;;;;;;;2.10;1.53;;;;;;;;;;5026220;28;20212;-71
2023/03/17 04:16:54;;;;;;;1.77;1.60;;;;;;;;;;5025652;28;20208;-71
2023/03/17 04:19:22;;;;;;;1.60;1.50;;;;;;;;;;5023507;28;20262;-71
2023/03/17 04:21:49;;;;;;;1.83;1.50;;;;;;;;;;5023736;28;20204;-71
2023/03/17 04:24:18;;;;;;;3.57;1.80;;;;;;;;;;5025525;28;20291;-71
2023/03/17 04:26:45;;;;;;;1.90;1.70;;;;;;;;;;5025393;28;20229;-71
2023/03/17 04:29:14;;;;;;;2.20;1.93;;;;;;;;;;5027290;28;20256;-71
2023/03/17 04:31:41;;;;;;;1.87;1.77;;;;;;;;;;5025621;28;20209;-70
2023/03/17 04:34:11;;;;;;;1.80;1.60;;;;;;;;;;5022434;28;20219;-72
2023/03/17 04:36:39;;;;;;;1.83;1.63;;;;;;;;;;5023836;28;20211;-71
2023/03/17 04:39:06;;;;;;;2.00;1.40;;;;;;;;;;5023911;28;20201;-71
2023/03/17 04:41:35;;;;;;;1.77;1.50;;;;;;;;;;5028569;28;20200;-71
2023/03/17 04:44:02;;;;;;;1.70;1.57;;;;;;;;;;5025452;28;20208;-72
2023/03/17 04:46:29;;;;;;;3.30;1.70;;;;;;;;;;5024471;28;20197;-72
2023/03/17 04:48:56;;;;;;;4.73;2.00;;;;;;;;;;5021328;28;20228;-72
2023/03/17 04:51:23;;;;;;;1.90;1.80;;;;;;;;;;5020338;28;20206;-72
2023/03/17 04:53:51;;;;;;;2.00;1.70;;;;;;;;;;5026145;28;20282;-72
2023/03/17 04:56:18;;;;;;;2.20;1.90;;;;;;;;;;5023280;28;20232;-71
2023/03/17 04:58:47;;;;;;;1.83;1.70;;;;;;;;;;5025224;28;20196;-71
2023/03/17 05:01:14;;;;;;;3.20;1.90;;;;;;;;;;5021050;28;20211;-72
2023/03/17 05:03:42;;;;;;;2.30;1.90;;;;;;;;;;5021529;28;20200;-72
2023/03/17 05:06:09;;;;;;;2.80;2.00;;;;;;;;;;5022586;28;20204;-72
2023/03/17 05:08:36;;;;;;;2.77;2.00;;;;;;;;;;5022882;28;20233;-72
2023/03/17 05:11:03;;;;;;;1.97;1.80;;;;;;;;;;5022224;28;20229;-71
2023/03/17 05:13:30;;;;;;;2.03;1.70;;;;;;;;;;5023263;28;20267;-72
2023/03/17 05:16:00;;;;;;;3.87;1.80;;;;;;;;;;5025693;28;20204;-72
2023/03/17 05:18:27;;;;;;;1.97;1.80;;;;;;;;;;5026353;28;20211;-72
2023/03/17 05:20:54;;;;;;;2.40;2.20;;;;;;;;;;5028973;28;20202;-72
2023/03/17 05:23:21;;;;;;;1.80;1.70;;;;;;;;;;5023782;28;20208;-72
2023/03/17 05:25:49;;;;;;;1.70;1.60;;;;;;;;;;5018322;28;20201;-72
2023/03/17 05:28:17;;;;;;;2.83;1.77;;;;;;;;;;5024844;28;20201;-72
2023/03/17 05:30:44;;;;;;;2.03;1.80;;;;;;;;;;5024144;28;20269;-72
2023/03/17 05:33:13;;;;;;;2.67;1.80;;;;;;;;;;5019469;28;20208;-72
2023/03/17 05:35:40;;;;;;;2.40;2.03;;;;;;;;;;5016768;28;20231;-72
2023/03/17 05:38:07;;;;;;;2.90;2.10;;;;;;;;;;5019864;28;20212;-71
2023/03/17 05:40:35;;;;;;;2.73;2.37;;;;;;;;;;5025738;28;20208;-71
2023/03/17 05:43:03;;;;;;;2.50;2.30;;;;;;;;;;5016912;28;20204;-72
2023/03/17 05:45:30;;;;;;;3.20;2.23;;;;;;;;;;5014658;28;20259;-72
2023/03/17 05:47:57;;;;;;;2.13;1.93;;;;;;;;;;5018506;28;20211;-72
2023/03/17 05:50:26;;;;;;;2.40;2.00;;;;;;;;;;5017513;28;20232;-72
2023/03/17 05:52:53;;;;;;;3.60;2.23;;;;;;;;;;5016375;28;20209;-72
2023/03/17 05:55:21;;;;;;;2.40;2.20;;;;;;;;;;5021136;28;20204;-72
2023/03/17 05:57:48;;;;;;;2.40;2.00;;;;;;;;;;5025109;28;20205;-72
2023/03/17 06:00:17;;;;;;;2.00;1.80;;;;;;;;;;5024177;28;20220;-72
2023/03/17 06:02:46;;;;;;;2.30;2.10;;;;;;;;;;5025768;28;20224;-72
2023/03/17 06:05:13;;;;;;;2.87;2.20;;;;;;;;;;5023321;28;20248;-72
2023/03/17 06:07:42;;;;;;;2.37;1.90;;;;;;;;;;5017995;28;20217;-72
2023/03/17 06:10:10;;;;;;;2.47;2.10;;;;;;;;;;5022322;28;20231;-71
2023/03/17 06:12:37;;;;;;;2.27;1.70;;;;;;;;;;5022832;28;20201;-72
2023/03/17 06:15:05;;;;;;;2.00;1.77;;;;;;;;;;5024480;28;20204;-71
2023/03/17 06:17:32;;;;;;;2.20;2.00;;;;;;;;;;5022238;28;20205;-71
2023/03/17 06:20:00;;;;;;;2.07;1.70;;;;;;;;;;5024770;28;20200;-71
2023/03/17 06:22:27;;;;;;;2.23;2.00;;;;;;;;;;5025084;28;20266;-71
2023/03/17 06:24:55;;;;;;;2.93;2.00;;;;;;;;;;5026153;28;20269;-71
2023/03/17 06:27:23;;;;;;;1.93;1.80;;;;;;;;;;5024382;28;20216;-72
2023/03/17 06:29:50;;;;;;;3.03;2.00;;;;;;;;;;5021227;28;20230;-72
2023/03/17 06:32:17;;;;;;;4.97;3.80;;;;;;;;;;5021521;28;20208;-72
2023/03/17 06:34:44;;;;;;;4.90;4.17;;;;;;;;;;5022839;28;20208;-72
2023/03/17 06:37:11;;;;;;;6.80;4.23;;;;;;;;;;5018666;28;20204;-72
2023/03/17 06:39:40;;;;;;;6.30;5.30;;;;;;;;;;5013918;28;20200;-72
2023/03/17 06:42:09;;;;;;;8.07;5.97;;;;;;;;;;5021568;28;20212;-72
2023/03/17 06:44:36;;;;;;;5.67;4.60;;;;;;;;;;5026711;28;20208;-72
2023/03/17 06:47:04;;;;;;;6.10;4.37;;;;;;;;;;5022186;28;20248;-73
2023/03/17 06:49:31;;;;;;;5.33;4.50;;;;;;;;;;5023582;28;20224;-72
2023/03/17 06:51:58;;;;;;;3.87;3.47;;;;;;;;;;5022388;28;20208;-72
2023/03/17 06:54:25;;;;;;;3.47;3.00;;;;;;;;;;5024348;28;20212;-72
2023/03/17 06:56:53;;;;;;;3.10;2.70;;;;;;;;;;5018790;28;20207;-72
2023/03/17 06:59:22;;;;;;;4.30;3.00;;;;;;;;;;5027795;28;20200;-72
2023/03/17 07:01:50;;;;;;;4.80;2.80;;;;;;;;;;5019803;28;20213;-72
2023/03/17 07:04:18;;;;;;;3.43;2.77;;;;;;;;;;5030930;28;20195;-71
2023/03/17 07:06:45;;;;;;;4.63;2.70;;;;;;;;;;5026522;28;20204;-72
2023/03/17 07:09:14;;;;;;;5.07;3.27;;;;;;;;;;5024306;28;20238;-72
2023/03/17 07:11:41;;;;;;;4.63;2.87;;;;;;;;;;5028065;28;20208;-72
2023/03/17 07:14:08;;;;;;;4.27;2.90;;;;;;;;;;5021786;28;20205;-71
2023/03/17 07:16:37;;;;;;;4.80;2.47;;;;;;;;;;5019305;28;20205;-71
2023/03/17 07:19:04;;;;;;;3.00;2.63;;;;;;;;;;5023059;28;20208;-71
2023/03/17 07:21:31;;;;;;;3.17;2.87;;;;;;;;;;5023532;28;20239;-71
2023/03/17 07:23:58;;;;;;;3.80;3.30;;;;;;;;;;5017906;28;20204;-71
2023/03/17 07:26:26;;;;;;;3.83;2.57;;;;;;;;;;5019613;28;20296;-72
2023/03/17 07:28:53;;;;;;;5.97;2.60;;;;;;;;;;5024599;28;20206;-72
2023/03/17 07:31:20;;;;;;;2.90;2.30;;;;;;;;;;5022318;28;20211;-72
2023/03/17 07:33:48;;;;;;;2.67;2.43;;;;;;;;;;5022029;28;20200;-71
2023/03/17 07:36:15;;;;;;;3.00;2.10;;;;;;;;;;5022252;28;20209;-72
2023/03/17 07:38:43;;;;;;;2.10;1.97;;;;;;;;;;5019509;28;20205;-72
2023/03/17 07:41:10;;;;;;;2.47;1.93;;;;;;;;;;5022698;28;20254;-71
2023/03/17 07:43:38;;;;;;;5.47;2.20;;;;;;;;;;5023836;28;20246;-71
2023/03/17 07:46:06;;;;;;;3.33;2.20;;;;;;;;;;5026151;28;20212;-71
2023/03/17 07:48:35;;;;;;;3.93;2.30;;;;;;;;;;5019702;28;20213;-71
2023/03/17 07:51:04;;;;;;;3.37;2.93;;;;;;;;;;5020615;28;20239;-70
2023/03/17 07:53:31;;;;;;;3.07;2.47;;;;;;;;;;5022365;28;20236;-71
2023/03/17 07:55:58;;;;;;;2.47;2.10;;;;;;;;;;5017628;28;20203;-71
2023/03/17 07:58:25;;;;;;;2.93;2.60;;;;;;;;;;5020481;28;20205;-71
2023/03/17 08:00:53;;;;;;;2.87;2.20;;;;;;;;;;5019842;28;20209;-70
2023/03/17 08:03:20;;;;;;;2.87;2.53;;;;;;;;;;5025072;28;20281;-71
2023/03/17 08:05:52;;;;;;;5.30;2.97;;;;;;;;;;5026451;28;20211;-71
2023/03/17 08:08:20;;;;;;;2.73;2.50;;;;;;;;;;5015448;28;20208;-71
2023/03/17 08:10:48;;;;;;;3.30;2.90;;;;;;;;;;5020974;28;20231;-71
2023/03/17 08:13:15;;;;;;;3.53;3.17;;;;;;;;;;5023742;28;20214;-71
2023/03/17 08:15:42;;;;;;;4.63;3.77;;;;;;;;;;5025218;28;20208;-71
2023/03/17 08:18:10;;;;;;;4.33;3.93;;;;;;;;;;5023465;28;20208;-71
2023/03/17 08:20:37;;;;;;;3.80;3.33;;;;;;;;;;5028459;28;20207;-71
2023/03/17 08:23:05;;;;;;;4.30;3.90;;;;;;;;;;5017737;28;20244;-71
2023/03/17 08:25:33;;;;;;;5.00;4.03;;;;;;;;;;5023134;28;20218;-71
2023/03/17 08:28:00;;;;;;;4.27;3.27;;;;;;;;;;5027116;28;20204;-71
2023/03/17 08:30:27;;;;;;;3.90;2.87;;;;;;;;;;5026858;28;20319;-71
2023/03/17 08:32:54;;;;;;;4.33;2.87;;;;;;;;;;5025861;28;20239;-71
2023/03/17 08:35:21;;;;;;;3.13;2.60;;;;;;;;;;5027533;28;20209;-71
2023/03/17 08:37:49;;;;;;;2.73;2.20;;;;;;;;;;5020593;28;20208;-71
2023/03/17 08:40:18;;;;;;;2.93;2.63;;;;;;;;;;5029387;28;20210;-71
2023/03/17 08:42:47;;;;;;;3.73;3.43;;;;;;;;;;5029296;28;20264;-70
2023/03/17 08:45:15;;;;;;;3.53;3.23;;;;;;;;;;5017653;28;20218;-71
2023/03/17 08:47:42;;;;;;;3.77;2.40;;;;;;;;;;5024102;28;20192;-71
2023/03/17 08:50:12;;;;;;;3.67;2.97;;;;;;;;;;5023925;28;20227;-70
2023/03/17 08:52:39;;;;;;;6.23;3.20;;;;;;;;;;5024492;28;20208;-70
2023/03/17 08:55:10;;;;;;;3.40;3.10;;;;;;;;;;5024922;28;20204;-70
2023/03/17 08:57:38;;;;;;;4.70;3.67;;;;;;;;;;5017056;28;20288;-71
2023/03/17 09:00:10;;;;;;;6.40;5.70;;;;;;;;;;5025407;28;20205;-71
2023/03/17 09:02:37;;;;;;;9.03;8.13;;;;;;;;;;5024975;28;20208;-71
2023/03/17 09:05:04;;;;;;;9.80;8.17;;;;;;;;;;5022871;28;20212;-69
2023/03/17 09:07:31;;;;;;;8.20;5.97;;;;;;;;;;5020236;28;20196;-70
2023/03/17 09:10:02;;;;;;;7.07;4.27;;;;;;;;;;5024700;28;20224;-70
2023/03/17 09:12:33;;;;;;;3.90;3.47;;;;;;;;;;5020714;28;20200;-71
2023/03/17 09:15:00;;;;;;;5.03;2.90;;;;;;;;;;5022032;28;20219;-70
2023/03/17 09:17:33;;;;;;;2.33;1.70;;;;;;;;;;5005954;28;20212;-70
2023/03/17 09:20:01;;;;;;;2.33;1.80;;;;;;;;;;5021344;28;20204;-70
2023/03/17 09:22:28;;;;;;;2.43;1.67;;;;;;;;;;5023857;28;20236;-70
2023/03/17 09:24:58;;;;;;;2.87;1.53;;;;;;;;;;5026918;28;20211;-70
2023/03/17 09:27:26;;;;;;;2.47;1.60;;;;;;;;;;5026350;28;20262;-69
2023/03/17 09:29:54;;;;;;;4.00;1.77;;;;;;;;;;5019076;28;20234;-70
2023/03/17 09:32:21;;;;;;;2.67;1.50;;;;;;;;;;5020284;28;20200;-70
2023/03/17 09:34:49;;;;;;;2.57;1.43;;;;;;;;;;5022238;28;20208;-69
2023/03/17 09:37:17;;;;;;;9.53;2.17;;;;;;;;;;5021981;28;20208;-69
2023/03/17 09:39:44;;;;;;;4.67;1.97;;;;;;;;;;5020475;28;20208;-69
2023/03/17 09:42:33;;;;;;;2.77;1.37;;;;;;;;;;5019485;28;20214;-69
2023/03/17 09:45:08;;;;;;;2.03;1.50;;;;;;;;;;5017474;28;20235;-70
2023/03/17 09:47:44;;;;;;;3.57;1.60;;;;;;;;;;5020596;28;20251;-69
2023/03/17 09:50:13;;;;;;;3.73;1.67;;;;;;;;;;5017586;28;20220;-71
2023/03/17 09:52:41;;;;;;;3.63;1.40;;;;;;;;;;5025267;28;20204;-70
2023/03/17 09:55:12;;;;;;;5.03;1.57;;;;;;;;;;5027439;28;20208;-69
2023/03/17 09:57:40;;;;;;;3.50;1.57;;;;;;;;;;5017624;28;20212;-69
2023/03/17 10:00:13;;;;;;;3.50;1.80;;;;;;;;;;5024676;28;20204;-69
2023/03/17 10:02:42;;;;;;;4.53;1.53;;;;;;;;;;5028868;28;20203;-70
2023/03/17 10:05:11;;;;;;;3.07;1.50;;;;;;;;;;5024394;28;20295;-69
2023/03/17 10:07:43;;;;;;;2.23;1.50;;;;;;;;;;5019804;28;20303;-69
2023/03/17 10:10:15;;;;;;;3.73;1.60;;;;;;;;;;5022407;28;20225;-69
2023/03/17 10:12:46;;;;;;;2.30;1.30;;;;;;;;;;5019529;28;20209;-70
2023/03/17 10:15:17;;;;;;;3.73;1.60;;;;;;;;;;5024541;28;20215;-68
2023/03/17 10:17:46;;;;;;;3.33;1.70;;;;;;;;;;5022368;28;20272;-68
2023/03/17 10:20:14;;;;;;;2.63;1.47;;;;;;;;;;5020748;28;20201;-69
2023/03/17 10:22:46;;;;;;;2.83;1.10;;;;;;;;;;5015887;28;20211;-68
2023/03/17 10:25:14;;;;;;;2.80;1.70;;;;;;;;;;5020325;28;20219;-69
2023/03/17 10:27:43;;;;;;;3.85;1.77;;;;;;;;;;5025300;28;20211;-69
2023/03/17 10:30:15;;;;;;;3.13;1.60;;;;;;;;;;5023190;28;20200;-69
2023/03/17 10:32:42;;;;;;;2.10;1.50;;;;;;;;;;5022630;28;20205;-69
2023/03/17 10:35:10;;;;;;;1.85;1.35;;;;;;;;;;5023928;28;20200;-69
2023/03/17 10:37:38;;;;;;;2.55;1.50;;;;;;;;;;5019864;28;20210;-68
2023/03/17 10:40:09;;;;;;;2.25;1.25;;;;;;;;;;5021186;28;20296;-70
2023/03/17 10:42:45;;;;;;;2.92;1.60;;;;;;;;;;5019300;28;20240;-68
2023/03/17 10:45:15;;;;;;;1.90;1.40;;;;;;;;;;5019781;28;20271;-70
2023/03/17 10:47:46;;;;;;;2.35;1.70;;;;;;;;;;5018945;28;20258;-69
2023/03/17 10:50:22;;;;;;;4.57;1.50;;;;;;;;;;5017819;28;20288;-69
2023/03/17 10:52:54;;;;;;;2.88;1.60;;;;;;;;;;5021836;28;20211;-68
2023/03/17 10:55:23;;;;;;;3.30;1.70;;;;;;;;;;5021268;28;20204;-68
2023/03/17 10:57:53;;;;;;;2.45;1.70;;;;;;;;;;5021022;28;20211;-68
2023/03/17 11:00:22;;;;;;;3.03;1.63;;;;;;;;;;5018046;28;20293;-68
2023/03/17 11:02:52;;;;;;;2.97;1.42;;;;;;;;;;5021708;28;20303;-68
2023/03/17 11:05:21;;;;;;;2.88;1.50;;;;;;;;;;5025330;28;20209;-68
2023/03/17 11:07:49;;;;;;;1.83;1.50;;;;;;;;;;5018695;28;20231;-68
2023/03/17 11:10:18;;;;;;;3.33;1.58;;;;;;;;;;5017990;28;20268;-68
2023/03/17 11:12:48;;;;;;;2.75;1.40;;;;;;;;;;5023593;28;20214;-68
2023/03/17 11:15:18;;;;;;;2.78;1.40;;;;;;;;;;5020086;28;20215;-68
2023/03/17 11:17:50;;;;;;;2.10;1.40;;;;;;;;;;5023386;28;20205;-69
2023/03/17 11:20:25;;;;;;;2.03;1.45;;;;;;;;;;5021644;28;20207;-68
2023/03/17 11:22:55;;;;;;;3.38;2.15;;;;;;;;;;5021936;28;20201;-68
2023/03/17 11:25:24;;;;;;;5.20;1.67;;;;;;;;;;5022112;28;20207;-68
2023/03/17 11:27:55;;;;;;;3.67;1.80;;;;;;;;;;5018128;28;20233;-68
2023/03/17 11:30:28;;;;;;;4.07;1.60;;;;;;;;;;5024657;28;20213;-69
2023/03/17 11:32:58;;;;;;;3.30;1.73;;;;;;;;;;5023610;28;20212;-68
2023/03/17 11:35:43;;;;;;;2.28;1.63;;;;;;;;;;5026827;28;20212;-68
2023/03/17 11:38:21;;;;;;;2.38;1.73;;;;;;;;;;5018178;28;20205;-68
2023/03/17 11:41:02;;;;;;;3.50;1.70;;;;;;;;;;5024345;28;20279;-69
2023/03/17 11:43:34;;;;;;;2.75;1.60;;;;;;;;;;5022239;28;20205;-69
2023/03/17 11:46:07;;;;;;;2.80;1.70;;;;;;;;;;5017925;28;20210;-69
2023/03/17 11:48:42;;;;;;;3.10;1.77;;;;;;;;;;5017296;28;20207;-69
2023/03/17 11:51:12;;;;;;;3.00;1.40;;;;;;;;;;5010589;28;20247;-69
2023/03/17 11:53:45;;;;;;;3.63;1.60;;;;;;;;;;5020053;28;20215;-69
2023/03/17 11:56:15;;;;;;;2.20;1.60;;;;;;;;;;5020770;28;20224;-69
2023/03/17 11:58:44;;;;;;;3.22;1.77;;;;;;;;;;5021122;28;20204;-69
2023/03/17 12:01:14;;;;;;;3.60;1.75;;;;;;;;;;5027732;28;20208;-68
2023/03/17 12:03:44;;;;;;;2.97;1.70;;;;;;;;;;5014419;28;20262;-69
2023/03/17 12:06:14;;;;;;;3.10;1.40;;;;;;;;;;5018434;28;20291;-70
2023/03/17 12:08:44;;;;;;;3.85;1.90;;;;;;;;;;5013719;28;20197;-69
2023/03/17 12:11:14;;;;;;;4.43;1.70;;;;;;;;;;5017638;28;20224;-68
2023/03/17 12:13:44;;;;;;;3.05;1.70;;;;;;;;;;5019920;28;20272;-68
2023/03/17 12:16:16;;;;;;;4.07;1.77;;;;;;;;;;5023088;28;20224;-68
2023/03/17 12:18:46;;;;;;;4.10;1.95;;;;;;;;;;5025618;28;20204;-69
2023/03/17 12:21:19;;;;;;;3.28;1.90;;;;;;;;;;5009860;28;20291;-68
2023/03/17 12:23:48;;;;;;;4.90;1.77;;;;;;;;;;5014611;28;20201;-68
2023/03/17 12:26:16;;;;;;;3.72;1.70;;;;;;;;;;5028288;28;20225;-68
2023/03/17 12:28:47;;;;;;;4.85;1.77;;;;;;;;;;5024849;28;20204;-68
2023/03/17 12:31:18;;;;;;;2.72;1.90;;;;;;;;;;5019532;28;20228;-68
2023/03/17 12:33:48;;;;;;;3.70;1.83;;;;;;;;;;5020984;28;20200;-68
2023/03/17 12:36:16;;;;;;;4.50;1.80;;;;;;;;;;5017731;28;20247;-69
2023/03/17 12:38:44;;;;;;;2.75;1.60;;;;;;;;;;5021782;28;20295;-68
2023/03/17 12:41:19;;;;;;;3.15;1.80;;;;;;;;;;5022672;28;20208;-68
2023/03/17 12:43:55;;;;;;;4.75;1.90;;;;;;;;;;5062639;23;20222;-67
2023/03/17 12:46:35;;;;;;;1.85;1.60;;;;;;;;;;5048129;28;20207;-67
2023/03/17 12:49:24;;;;;;;4.07;1.67;;;;;;;;;;5043353;28;20214;-67
2023/03/17 12:51:57;;;;;;;3.22;1.40;;;;;;;;;;5040358;28;20224;-67
2023/03/17 12:54:27;;;;;;;4.35;1.83;;;;;;;;;;5047504;28;20215;-67
2023/03/17 12:57:00;;;;;;;5.20;1.35;;;;;;;;;;5046497;28;20207;-67
2023/03/17 12:59:30;;;;;;;4.28;1.67;;;;;;;;;;5044333;28;20204;-67
2023/03/17 13:01:59;;;;;;;3.92;2.00;;;;;;;;;;5039532;28;20242;-68
2023/03/17 13:04:27;;;;;;;2.95;1.70;;;;;;;;;;5047941;28;20218;-67
2023/03/17 13:06:59;;;;;;;4.85;1.85;;;;;;;;;;5040849;28;20203;-67
2023/03/17 13:09:28;;;;;;;2.05;1.33;;;;;;;;;;5041335;28;20227;-67
2023/03/17 13:11:56;;;;;;;4.43;1.67;;;;;;;;;;5044712;28;20310;-67
2023/03/17 13:14:25;;;;;;;2.30;1.58;;;;;;;;;;5049018;28;20214;-68
2023/03/17 13:16:53;;;;;;;3.38;1.50;;;;;;;;;;5049799;28;20214;-68
2023/03/17 13:19:23;;;;;;;2.58;1.55;;;;;;;;;;5049048;28;20266;-68
2023/03/17 13:21:53;;;;;;;1.55;1.45;;;;;;;;;;5046414;28;20219;-67
2023/03/17 13:24:35;;;;;;;3.03;1.70;;;;;;;;;;5044483;28;20195;-68
2023/03/17 13:27:03;;;;;;;3.85;1.98;;;;;;;;;;5046704;28;20277;-68
2023/03/17 13:29:44;;;;;;;2.15;1.50;;;;;;;;;;5046584;28;20211;-67
2023/03/17 13:32:30;;;;;;;3.38;2.05;;;;;;;;;;5041332;28;20224;-68
2023/03/17 13:35:15;;;;;;;3.35;1.48;;;;;;;;;;5045132;28;20231;-61
2023/03/17 13:37:52;;;;;;;2.78;1.63;;;;;;;;;;5046094;28;20242;-60
2023/03/17 13:40:27;;;;;;;4.28;1.45;;;;;;;;;;5044437;28;20206;-62
2023/03/17 13:43:06;;;;;;;4.55;1.23;;;;;;;;;;5045515;28;20281;-61
2023/03/17 13:45:38;;;;;;;3.45;1.50;;;;;;;;;;5047063;28;20223;-61
2023/03/17 13:48:36;;;;;;;4.20;1.60;;;;;;;;;;5052364;28;20231;-62
2023/03/17 13:51:11;;;;;;;1.50;1.30;;;;;;;;;;4994416;28;20216;-61
2023/03/17 13:53:43;;;;;;;6.13;1.50;;;;;;;;;;5045762;28;20241;-61
2023/03/17 13:56:44;;;;;;;3.55;1.33;;;;;;;;;;5040457;28;20249;-61
2023/03/17 13:59:16;;;;;;;2.72;1.50;;;;;;;;;;5044584;28;20206;-61
2023/03/17 14:01:47;;;;;;;4.00;1.60;;;;;;;;;;5042403;28;20211;-61
2023/03/17 14:04:22;;;;;;;3.45;1.40;;;;;;;;;;5041342;28;20234;-61
2023/03/17 14:07:14;;;;;;;1.40;1.30;;;;;;;;;;5059242;23;20243;-87
2023/03/17 14:09:47;;;;;;;2.47;1.35;;;;;;;;;;5005154;28;20226;-93
2023/03/17 14:12:22;;;;;;;3.55;1.60;;;;;;;;;;5001342;28;20232;-90
2023/03/17 14:14:51;;;;;;;3.53;1.42;;;;;;;;;;4988686;28;20278;-95
2023/03/17 14:17:22;;;;;;;2.15;1.42;;;;;;;;;;5013817;28;20206;-92
2023/03/17 14:20:08;;;;;;;1.73;1.60;;;;;;;;;;5007134;28;20247;-91
2023/03/17 14:22:50;;;;;;;2.72;1.45;;;;;;;;;;5001224;28;20198;-92
2023/03/17 14:25:24;;;;;;;2.58;1.90;;;;;;;;;;5000497;28;20208;-90
2023/03/17 14:27:55;;;;;;;3.33;1.90;;;;;;;;;;5006896;28;20235;-91
2023/03/17 14:30:27;;;;;;;2.40;1.63;;;;;;;;;;4992331;28;20201;-91
2023/03/17 14:32:59;;;;;;;1.65;1.38;;;;;;;;;;5001354;28;20224;-90
2023/03/17 14:35:34;;;;;;;4.03;2.25;;;;;;;;;;5007003;28;20219;-89
2023/03/17 14:38:15;;;;;;;2.60;1.30;;;;;;;;;;5005558;28;20231;-89
2023/03/17 14:40:43;;;;;;;2.65;1.50;;;;;;;;;;5011708;28;20205;-90
2023/03/17 14:43:14;;;;;;;3.65;2.10;;;;;;;;;;5002839;28;20207;-89
2023/03/17 14:46:12;;;;;;;3.50;1.80;;;;;;;;;;5003873;28;20256;-89
2023/03/17 14:48:46;;;;;;;2.83;1.80;;;;;;;;;;5002672;28;20197;-90
2023/03/17 14:51:23;;;;;;;3.63;1.77;;;;;;;;;;4999325;28;20298;-88
2023/03/17 14:53:59;;;;;;;2.08;1.42;;;;;;;;;;5005217;28;20218;-91
2023/03/17 14:56:35;;;;;;;2.45;1.33;;;;;;;;;;5005079;28;20212;-91